Time;durP1;ratioP1;P1;durP2;ratioP2;P2;SDS_P1;SDS_P2;PMS_P1;PMS_P2;Temp;Humidity;BMP_temperature;BMP_pressure;BME280_temperature;BME280_humidity;BME280_pressure;Samples;Min_cycle;Max_cycle;Signal;HPM_P1;HPM_P2
2022/03/21 00:01:05;;;;;;;14.63;11.25;;;;;;;19.70;37.72;102868.88;5056458;28;20266;-60
2022/03/21 00:03:30;;;;;;;13.55;11.35;;;;;;;19.66;37.57;102866.47;5055674;28;20031;-58
2022/03/21 00:05:58;;;;;;;13.10;10.20;;;;;;;19.62;37.64;102868.44;5055933;28;20017;-58
2022/03/21 00:08:24;;;;;;;13.68;11.18;;;;;;;19.60;37.63;102869.47;5056192;28;20290;-58
2022/03/21 00:10:50;;;;;;;13.52;10.98;;;;;;;19.58;37.69;102862.47;5055370;28;20445;-58
2022/03/21 00:13:16;;;;;;;13.32;10.98;;;;;;;19.57;37.71;102862.56;5055778;28;20468;-58
2022/03/21 00:15:42;;;;;;;14.00;10.77;;;;;;;19.55;37.86;102869.72;5055209;28;20083;-59
2022/03/21 00:18:08;;;;;;;12.32;11.02;;;;;;;19.51;37.59;102871.69;5056037;28;20132;-58
2022/03/21 00:20:34;;;;;;;14.88;11.32;;;;;;;19.49;37.55;102870.06;5055559;28;20508;-58
2022/03/21 00:23:00;;;;;;;14.88;10.57;;;;;;;19.47;37.55;102878.09;5055183;28;20025;-58
2022/03/21 00:25:26;;;;;;;12.18;10.52;;;;;;;19.44;37.97;102874.75;5056019;28;20021;-58
2022/03/21 00:27:51;;;;;;;14.75;10.70;;;;;;;19.42;37.52;102879.28;5055719;28;20033;-58
2022/03/21 00:30:17;;;;;;;13.43;10.82;;;;;;;19.40;37.84;102871.41;5055234;28;20071;-59
2022/03/21 00:32:43;;;;;;;15.43;11.10;;;;;;;19.38;37.67;102878.59;5055540;28;20029;-59
2022/03/21 00:35:11;;;;;;;12.40;11.05;;;;;;;19.36;37.52;102873.38;5055646;28;20035;-59
2022/03/21 00:37:37;;;;;;;13.57;11.20;;;;;;;19.36;37.54;102875.19;5054795;28;20052;-59
2022/03/21 00:40:05;;;;;;;13.82;10.95;;;;;;;19.32;37.79;102881.56;5055739;28;20108;-59
2022/03/21 00:42:34;;;;;;;14.98;11.90;;;;;;;19.33;37.61;102884.13;5055692;28;20033;-59
2022/03/21 00:44:59;;;;;;;14.48;11.55;;;;;;;19.32;37.20;102890.34;5054814;28;20064;-59
2022/03/21 00:47:25;;;;;;;15.65;10.93;;;;;;;19.30;37.51;102889.59;5055395;28;20049;-59
2022/03/21 00:49:52;;;;;;;12.85;10.43;;;;;;;19.29;37.38;102887.03;5055186;28;20021;-59
2022/03/21 00:52:18;;;;;;;14.98;10.82;;;;;;;19.27;37.51;102887.09;5054771;28;20025;-59
2022/03/21 00:54:43;;;;;;;14.73;11.60;;;;;;;19.25;37.31;102888.97;5055206;28;20101;-59
2022/03/21 00:57:08;;;;;;;13.37;10.43;;;;;;;19.25;37.29;102893.41;5055235;28;20029;-59
2022/03/21 00:59:33;;;;;;;14.13;10.70;;;;;;;19.24;37.38;102889.06;5054289;28;20273;-59
2022/03/21 01:01:59;;;;;;;13.93;10.57;;;;;;;19.19;37.18;102887.50;5055357;28;20262;-59
2022/03/21 01:04:24;;;;;;;14.80;11.63;;;;;;;19.21;37.28;102893.56;5054998;28;20021;-59
2022/03/21 01:06:50;;;;;;;15.75;11.48;;;;;;;19.20;37.31;102894.50;5053885;28;20024;-59
2022/03/21 01:09:17;;;;;;;13.60;11.43;;;;;;;19.18;37.18;102896.41;5054404;28;20029;-59
2022/03/21 01:11:43;;;;;;;13.43;10.82;;;;;;;19.17;37.25;102897.31;5054551;28;20020;-58
2022/03/21 01:14:09;;;;;;;13.77;11.05;;;;;;;19.14;37.35;102894.00;5054326;28;20021;-59
2022/03/21 01:16:35;;;;;;;13.00;11.25;;;;;;;19.12;37.36;102893.19;5054537;28;20078;-58
2022/03/21 01:19:00;;;;;;;14.48;10.60;;;;;;;19.11;37.23;102896.78;5054084;28;20417;-59
2022/03/21 01:21:25;;;;;;;15.83;11.23;;;;;;;19.10;37.23;102895.91;5055141;28;20025;-59
2022/03/21 01:23:50;;;;;;;12.80;10.65;;;;;;;19.08;37.20;102899.59;5054798;28;20266;-59
2022/03/21 01:26:16;;;;;;;12.85;10.85;;;;;;;19.05;37.09;102897.97;5054202;28;20471;-59
2022/03/21 01:28:42;;;;;;;14.18;10.52;;;;;;;19.03;37.25;102898.03;5054487;28;20468;-57
2022/03/21 01:31:07;;;;;;;12.95;11.48;;;;;;;19.00;37.08;102887.63;5054713;28;20094;-59
2022/03/21 01:33:35;;;;;;;14.97;11.20;;;;;;;18.99;37.30;102903.56;5053838;28;20461;-59
2022/03/21 01:36:00;;;;;;;14.73;10.27;;;;;;;18.98;37.08;102894.78;5054628;28;20352;-58
2022/03/21 01:38:26;;;;;;;14.48;11.10;;;;;;;18.98;37.16;102901.88;5054757;28;20103;-58
2022/03/21 01:40:51;;;;;;;13.27;11.00;;;;;;;18.97;37.26;102908.94;5053598;28;20021;-58
2022/03/21 01:43:16;;;;;;;12.30;10.68;;;;;;;18.96;36.90;102911.66;5054639;28;20266;-58
2022/03/21 01:45:42;;;;;;;13.95;10.80;;;;;;;18.94;37.20;102903.81;5054328;28;20453;-58
2022/03/21 01:48:07;;;;;;;13.73;10.98;;;;;;;18.94;37.25;102905.59;5053731;28;20452;-59
2022/03/21 01:50:32;;;;;;;12.10;10.70;;;;;;;18.91;36.99;102901.31;5054628;28;20419;-59
2022/03/21 01:55:45;;;;;;;;;;;;;;;18.90;37.19;102897.00;5053984;28;20111;-58
2022/03/21 01:58:14;;;;;;;14.48;10.75;;;;;;;18.90;37.15;102898.75;5054126;28;20019;-59
2022/03/21 02:00:43;;;;;;;14.38;11.02;;;;;;;18.91;37.01;102897.84;5053749;28;20021;-58
2022/03/21 02:03:09;;;;;;;13.88;10.63;;;;;;;18.93;36.78;102901.25;5053312;28;20108;-58
2022/03/21 02:05:37;;;;;;;13.75;11.23;;;;;;;18.97;36.67;102902.81;5053731;28;20067;-58
2022/03/21 02:08:03;;;;;;;15.65;11.68;;;;;;;19.01;36.87;102899.09;5054132;28;20116;-59
2022/03/21 02:10:29;;;;;;;12.40;10.95;;;;;;;19.02;36.58;102895.47;5053155;28;20025;-59
2022/03/21 02:12:55;;;;;;;13.80;10.80;;;;;;;19.05;36.47;102903.25;5053429;28;20043;-59
2022/03/21 02:15:20;;;;;;;14.10;10.35;;;;;;;19.06;36.49;102904.97;5052904;28;20039;-59
2022/03/21 02:17:46;;;;;;;13.43;10.85;;;;;;;19.09;36.71;102902.16;5053672;28;20024;-59
2022/03/21 02:20:20;;;;;;;12.32;10.15;;;;;;;19.10;36.61;102906.50;5053807;28;20086;-59
2022/03/21 02:22:53;;;;;;;14.40;10.85;;;;;;;19.11;36.29;102904.72;5052935;28;20025;-59
2022/03/21 02:25:30;;;;;;;11.90;10.50;;;;;;;19.11;36.56;102899.44;5053800;28;20029;-59
2022/03/21 02:27:58;;;;;;;11.90;10.18;;;;;;;19.12;36.64;102909.06;5053410;28;20029;-59
2022/03/21 02:30:26;;;;;;;12.20;10.15;;;;;;;19.12;36.64;102903.78;5052978;28;20451;-59
2022/03/21 02:32:52;;;;;;;13.35;10.65;;;;;;;19.11;36.17;102910.00;5053457;28;20061;-59
2022/03/21 02:35:17;;;;;;;12.48;10.65;;;;;;;19.09;36.46;102906.56;5053756;28;20060;-60
2022/03/21 02:37:46;;;;;;;12.30;10.43;;;;;;;19.08;36.59;102905.72;5052381;28;20037;-60
2022/03/21 02:40:11;;;;;;;12.88;10.65;;;;;;;19.07;36.13;102904.00;5053319;28;20025;-60
2022/03/21 02:42:36;;;;;;;13.88;11.48;;;;;;;19.06;36.25;102909.38;5053174;28;20418;-59
2022/03/21 02:45:03;;;;;;;14.45;10.93;;;;;;;19.06;36.38;102904.09;5052643;28;20159;-59
2022/03/21 02:47:28;;;;;;;13.65;11.63;;;;;;;19.02;36.55;102898.97;5053258;28;20017;-59
2022/03/21 02:49:55;;;;;;;14.02;11.15;;;;;;;19.01;36.47;102902.56;5052815;28;20032;-59
2022/03/21 02:52:22;;;;;;;13.57;10.85;;;;;;;18.99;36.37;102909.72;5052263;28;20389;-59
2022/03/21 02:54:47;;;;;;;13.48;11.20;;;;;;;18.99;36.67;102912.38;5052844;28;20021;-59
2022/03/21 02:57:13;;;;;;;14.18;11.27;;;;;;;19.02;36.39;102898.13;5053386;28;20033;-58
2022/03/21 02:59:38;;;;;;;12.83;10.80;;;;;;;19.04;36.26;102904.16;5052254;28;20468;-59
2022/03/21 03:02:03;;;;;;;13.73;10.70;;;;;;;19.06;36.34;102904.09;5053079;28;20274;-59
2022/03/21 03:04:29;;;;;;;13.68;10.98;;;;;;;19.06;36.32;102897.03;5052384;28;20032;-59
2022/03/21 03:06:54;;;;;;;12.93;10.70;;;;;;;19.08;36.29;102896.97;5052911;28;20024;-59
2022/03/21 03:09:20;;;;;;;13.43;10.70;;;;;;;19.11;36.16;102902.09;5052976;28;20029;-58
2022/03/21 03:11:45;;;;;;;15.95;11.30;;;;;;;19.10;36.05;102903.84;5051915;28;20029;-58
2022/03/21 03:14:11;;;;;;;12.13;10.25;;;;;;;19.10;35.92;102900.38;5053075;28;20025;-59
2022/03/21 03:16:37;;;;;;;13.30;10.82;;;;;;;19.11;35.79;102900.28;5052564;28;20033;-59
2022/03/21 03:19:02;;;;;;;13.05;10.48;;;;;;;19.10;35.94;102900.38;5052332;28;20021;-58
2022/03/21 03:21:44;;;;;;;12.40;9.98;;;;;;;19.10;35.88;102905.66;5053018;28;20526;-58
2022/03/21 03:24:11;;;;;;;14.32;10.38;;;;;;;19.09;35.95;102909.22;5052746;28;20044;-59
2022/03/21 03:26:36;;;;;;;13.65;11.25;;;;;;;19.09;35.92;102899.53;5051901;28;20074;-59
2022/03/21 03:29:02;;;;;;;12.27;9.85;;;;;;;19.08;35.74;102897.81;5052864;28;20111;-59
2022/03/21 03:31:28;;;;;;;12.63;10.40;;;;;;;19.07;35.95;102901.38;5052804;28;20376;-60
2022/03/21 03:33:54;;;;;;;13.98;10.73;;;;;;;19.07;35.78;102903.16;5056976;28;20024;-60
2022/03/21 03:36:20;;;;;;;14.20;11.60;;;;;;;19.05;36.35;102908.53;5059232;28;20036;-59
2022/03/21 03:38:47;;;;;;;13.27;11.13;;;;;;;19.07;36.11;102908.44;5058955;28;20025;-59
2022/03/21 03:41:12;;;;;;;14.02;10.75;;;;;;;19.10;36.14;102913.59;5058623;28;20465;-59
2022/03/21 03:43:39;;;;;;;14.32;10.63;;;;;;;19.10;36.25;102910.94;5059109;28;20039;-59
2022/03/21 03:46:04;;;;;;;11.98;10.45;;;;;;;19.11;36.32;102917.94;5059277;28;20029;-59
2022/03/21 03:48:29;;;;;;;13.48;10.82;;;;;;;19.12;35.69;102925.78;5058765;28;20029;-59
2022/03/21 03:50:55;;;;;;;13.45;10.80;;;;;;;19.11;35.83;102910.84;5058756;28;20526;-59
2022/03/21 03:53:21;;;;;;;14.10;10.88;;;;;;;19.13;35.95;102916.91;5059350;28;20025;-59
2022/03/21 03:55:46;;;;;;;13.50;10.77;;;;;;;19.12;35.45;102912.56;5058096;28;20104;-59
2022/03/21 03:58:11;;;;;;;13.30;10.77;;;;;;;19.12;35.55;102915.22;5059132;28;20070;-59
2022/03/21 04:00:37;;;;;;;13.60;11.48;;;;;;;19.12;35.97;102920.50;5058797;28;20029;-59
2022/03/21 04:05:46;;;;;;;13.27;10.32;;;;;;;19.15;36.20;102923.00;5059216;28;20107;-59
2022/03/21 04:08:12;;;;;;;12.23;10.30;;;;;;;19.15;35.88;102925.63;5056973;28;20492;-58
2022/03/21 04:10:37;;;;;;;13.98;10.93;;;;;;;19.18;36.06;102921.94;5058905;28;20032;-59
2022/03/21 04:13:03;;;;;;;13.05;11.15;;;;;;;19.20;35.99;102925.34;5058766;28;20063;-59
2022/03/21 04:15:28;;;;;;;13.77;11.27;;;;;;;19.20;35.79;102922.72;5058243;28;20036;-59
2022/03/21 04:18:00;;;;;;;13.68;10.38;;;;;;;19.21;35.91;102924.44;5058590;28;20464;-59
2022/03/21 04:20:27;;;;;;;13.02;10.77;;;;;;;19.18;35.52;102920.19;5058903;28;20380;-59
2022/03/21 04:22:52;;;;;;;12.23;10.70;;;;;;;19.21;35.45;102921.78;5058012;28;20051;-60
2022/03/21 04:25:18;;;;;;;14.00;10.80;;;;;;;19.20;35.55;102920.94;5059225;28;20044;-59
2022/03/21 04:27:44;;;;;;;14.27;11.15;;;;;;;19.19;34.71;102926.31;5058675;28;20108;-60
2022/03/21 04:30:09;;;;;;;11.57;10.23;;;;;;;19.19;35.25;102921.03;5058157;28;20055;-59
2022/03/21 04:32:35;;;;;;;12.85;10.35;;;;;;;19.18;35.64;102919.31;5058445;28;20074;-59
2022/03/21 04:35:01;;;;;;;13.18;11.00;;;;;;;19.17;35.84;102921.09;5059048;28;20021;-59
2022/03/21 04:37:26;;;;;;;13.40;10.77;;;;;;;19.16;35.92;102914.09;5058058;28;20052;-60
2022/03/21 04:39:51;;;;;;;14.38;10.38;;;;;;;19.19;35.94;102923.66;5058672;28;20427;-59
2022/03/21 04:42:17;;;;;;;14.85;10.48;;;;;;;19.19;35.74;102918.38;5058905;28;20033;-59
2022/03/21 04:44:44;;;;;;;14.50;11.02;;;;;;;19.20;35.71;102923.59;5054754;28;20036;-60
2022/03/21 04:47:10;;;;;;;13.15;10.63;;;;;;;19.20;35.72;102925.34;5055445;28;20025;-59
2022/03/21 04:49:36;;;;;;;14.88;11.65;;;;;;;19.20;35.46;102922.72;5055183;28;20480;-59
2022/03/21 04:52:01;;;;;;;12.20;10.52;;;;;;;19.20;35.39;102922.72;5054689;28;20052;-59
2022/03/21 04:54:29;;;;;;;14.52;11.40;;;;;;;19.20;35.53;102928.00;5055432;28;20029;-59
2022/03/21 04:56:55;;;;;;;12.55;10.60;;;;;;;19.19;35.08;102923.66;5054899;28;20056;-59
2022/03/21 04:59:21;;;;;;;13.45;10.52;;;;;;;19.16;35.27;102927.31;5054843;28;20448;-58
2022/03/21 05:01:47;;;;;;;13.82;10.65;;;;;;;19.16;35.73;102935.25;5055010;28;20036;-59
2022/03/21 05:04:12;;;;;;;13.00;10.65;;;;;;;19.16;35.64;102939.69;5054490;28;20426;-59
2022/03/21 05:06:38;;;;;;;13.73;11.05;;;;;;;19.18;35.94;102943.09;5054982;28;20033;-58
2022/03/21 05:09:03;;;;;;;13.07;10.48;;;;;;;19.18;36.04;102943.97;5055209;28;20464;-59
2022/03/21 05:11:29;;;;;;;12.57;10.25;;;;;;;19.19;35.78;102950.09;5054448;28;20033;-59
2022/03/21 05:13:56;;;;;;;14.13;10.88;;;;;;;19.20;35.51;102951.78;5054441;28;20045;-59
2022/03/21 05:16:22;;;;;;;13.25;10.30;;;;;;;19.19;35.71;102956.22;5054753;28;20036;-59
2022/03/21 05:18:48;;;;;;;13.52;10.75;;;;;;;19.19;35.44;102952.75;5053658;28;20185;-58
2022/03/21 05:21:14;;;;;;;12.00;10.70;;;;;;;19.19;35.29;102952.75;5054963;28;20045;-59
2022/03/21 05:31:50;;;;;;;12.15;10.90;;;;;;;19.20;35.88;102947.38;5054639;28;20035;-59
2022/03/21 05:37:00;;;;;;;13.68;10.63;;;;;;;19.21;35.77;102949.06;5054743;28;20036;-59
2022/03/21 05:39:25;;;;;;;13.90;11.07;;;;;;;19.21;35.85;102951.72;5053510;28;20384;-60
2022/03/21 05:41:53;;;;;;;13.48;10.13;;;;;;;19.21;35.55;102953.50;5054280;28;20270;-59
2022/03/21 05:44:19;;;;;;;13.05;10.45;;;;;;;19.21;35.37;102949.06;5054453;28;20017;-59
2022/03/21 05:46:45;;;;;;;12.82;10.50;;;;;;;19.21;35.31;102949.06;5053329;28;20094;-59
2022/03/21 05:49:10;;;;;;;13.68;10.45;;;;;;;19.19;35.23;102942.16;5054226;28;20424;-58
2022/03/21 05:51:37;;;;;;;14.00;10.63;;;;;;;19.16;35.33;102943.19;5053928;28;20025;-59
2022/03/21 05:54:08;;;;;;;12.88;9.82;;;;;;;19.20;35.87;102954.44;5053318;28;20021;-59
2022/03/21 05:56:34;;;;;;;12.68;10.32;;;;;;;19.19;35.72;102953.59;5053642;28;20027;-59
2022/03/21 06:00:20;;;;;;;13.48;11.25;;;;;;;19.21;35.58;102956.16;5053894;28;20384;-59
2022/03/21 06:01:45;;;;;;;12.73;10.02;;;;;;;19.21;35.93;102964.94;5052733;28;20067;-59
2022/03/21 06:04:10;;;;;;;12.65;10.27;;;;;;;19.21;35.82;102953.50;5053935;28;20036;-59
2022/03/21 06:06:36;;;;;;;12.57;9.60;;;;;;;19.24;36.17;102968.38;5053405;28;20029;-59
2022/03/21 06:09:02;;;;;;;15.40;10.38;;;;;;;19.24;36.48;102961.28;5053028;28;20028;-59
2022/03/21 06:11:29;;;;;;;13.32;10.88;;;;;;;19.28;37.28;102964.59;5054008;28;20108;-59
2022/03/21 06:13:54;;;;;;;11.25;9.63;;;;;;;19.31;37.48;102973.25;5053347;28;20136;-59
2022/03/21 06:16:20;;;;;;;11.75;9.82;;;;;;;19.36;37.05;102975.66;5053079;28;20075;-58
2022/03/21 06:18:46;;;;;;;13.45;9.57;;;;;;;19.39;37.48;102970.19;5053422;28;20063;-59
2022/03/21 06:21:12;;;;;;;12.35;9.63;;;;;;;19.42;37.60;102967.38;5053766;28;20029;-59
2022/03/21 06:23:38;;;;;;;11.70;9.10;;;;;;;19.43;37.81;102966.44;5052749;28;20071;-59
2022/03/21 06:26:04;;;;;;;11.55;8.75;;;;;;;19.46;38.15;102971.56;5053661;28;20017;-59
2022/03/21 06:28:30;;;;;;;10.95;8.73;;;;;;;19.49;37.95;102971.41;5052846;28;20032;-59
2022/03/21 06:30:56;;;;;;;10.55;8.52;;;;;;;19.52;37.86;102970.41;5053196;28;20025;-60
2022/03/21 06:33:24;;;;;;;12.93;9.00;;;;;;;19.54;38.09;102973.81;5053418;28;20116;-59
2022/03/21 06:35:51;;;;;;;11.32;9.50;;;;;;;19.55;37.96;102971.09;5052272;28;20057;-59
2022/03/21 06:38:16;;;;;;;13.18;9.32;;;;;;;19.56;37.70;102978.06;5053229;28;20033;-59
2022/03/21 06:40:42;;;;;;;10.57;8.70;;;;;;;19.58;37.68;102980.63;5053159;28;20082;-59
2022/03/21 06:43:09;;;;;;;12.65;9.43;;;;;;;19.60;37.80;102980.53;5052750;28;20028;-59
2022/03/21 06:45:35;;;;;;;13.90;9.68;;;;;;;19.61;37.92;102985.75;5052995;28;20029;-59
2022/03/21 06:48:00;;;;;;;11.98;8.82;;;;;;;19.62;37.94;102982.19;5053258;28;20392;-60
2022/03/21 06:50:26;;;;;;;11.05;8.52;;;;;;;19.65;38.19;102989.09;5052237;28;20024;-58
2022/03/21 06:52:52;;;;;;;11.07;8.32;;;;;;;19.65;38.27;102987.31;5052914;28;20063;-58
2022/03/21 06:55:19;;;;;;;13.38;9.02;;;;;;;19.68;38.10;102989.78;5053172;28;20496;-58
2022/03/21 06:57:45;;;;;;;11.13;8.23;;;;;;;19.71;38.03;102994.91;5051886;28;20365;-58
2022/03/21 07:00:13;;;;;;;10.73;8.85;;;;;;;19.73;37.97;102995.69;5052915;28;20540;-58
2022/03/21 07:02:42;;;;;;;12.00;8.77;;;;;;;19.74;38.20;102996.53;5052624;28;20041;-59
2022/03/21 07:05:08;;;;;;;12.13;9.25;;;;;;;19.78;38.06;103002.56;5052261;28;20025;-60
2022/03/21 07:07:34;;;;;;;11.23;8.70;;;;;;;19.78;37.95;103003.41;5051893;28;20032;-59
2022/03/21 07:10:00;;;;;;;10.80;8.13;;;;;;;19.79;38.04;102998.94;5052799;28;20033;-60
2022/03/21 07:12:26;;;;;;;11.60;9.05;;;;;;;19.80;38.04;103001.50;5051878;28;20047;-60
2022/03/21 07:14:51;;;;;;;11.30;8.00;;;;;;;19.82;38.26;103006.72;5052518;28;20033;-60
2022/03/21 07:17:18;;;;;;;12.70;8.20;;;;;;;19.85;38.14;103010.06;5052466;28;20471;-60
2022/03/21 07:19:44;;;;;;;13.52;11.15;;;;;;;19.82;35.71;103007.59;5051774;28;20044;-60
2022/03/21 07:22:09;;;;;;;11.30;9.20;;;;;;;19.80;37.37;103011.25;5052816;28;20460;-60
2022/03/21 07:24:34;;;;;;;11.00;8.67;;;;;;;19.75;37.82;103012.31;5052363;28;20044;-59
2022/03/21 07:27:00;;;;;;;10.00;7.95;;;;;;;19.70;38.15;103009.06;5051825;28;20277;-60
2022/03/21 07:29:26;;;;;;;10.88;7.53;;;;;;;19.70;38.30;103014.34;5052610;28;20020;-60
2022/03/21 07:31:52;;;;;;;10.25;7.65;;;;;;;19.69;38.98;103007.38;5051596;28;20025;-60
2022/03/21 07:34:17;;;;;;;12.20;10.20;;;;;;;19.70;37.29;103024.09;5052891;28;20020;-60
2022/03/21 07:36:42;;;;;;;11.93;9.25;;;;;;;19.68;38.37;103010.94;5052210;28;20407;-61
2022/03/21 07:39:07;;;;;;;11.47;8.53;;;;;;;19.69;38.52;103009.16;5051837;28;20033;-60
2022/03/21 07:41:34;;;;;;;10.67;7.90;;;;;;;19.70;39.11;103011.72;5052486;28;20285;-62
2022/03/21 07:43:59;;;;;;;10.05;7.90;;;;;;;19.72;39.03;103027.50;5052576;28;20278;-60
2022/03/21 07:49:10;;;;;;;10.52;7.13;;;;;;;19.74;38.99;103013.28;5052981;28;20554;-62
2022/03/21 07:51:36;;;;;;;10.98;7.70;;;;;;;19.74;39.36;103015.03;5052355;28;20017;-60
2022/03/21 07:54:02;;;;;;;9.98;7.43;;;;;;;19.75;39.55;103012.31;5051760;28;20024;-61
2022/03/21 07:56:27;;;;;;;9.95;7.22;;;;;;;19.79;39.80;103014.81;5052643;28;20076;-61
2022/03/21 07:58:53;;;;;;;9.98;7.10;;;;;;;19.81;39.89;103020.91;5052004;28;20024;-60
2022/03/21 08:01:19;;;;;;;12.38;7.72;;;;;;;19.82;39.96;103015.53;5051593;28;20107;-63
2022/03/21 08:03:46;;;;;;;9.75;6.80;;;;;;;19.84;39.82;103012.81;5052162;28;20040;-61
2022/03/21 08:06:11;;;;;;;9.63;7.07;;;;;;;19.86;39.99;103017.06;5052349;28;20021;-62
2022/03/21 08:08:37;;;;;;;9.80;7.07;;;;;;;19.88;40.34;103020.47;5051413;28;20112;-60
2022/03/21 08:11:04;;;;;;;10.98;6.93;;;;;;;19.89;40.57;103016.91;5052187;28;20062;-63
2022/03/21 08:13:30;;;;;;;11.63;7.13;;;;;;;19.92;41.70;103016.72;5051919;28;20056;-60
2022/03/21 08:15:55;;;;;;;11.18;7.40;;;;;;;20.02;42.26;103024.16;5051069;28;20381;-59
2022/03/21 08:18:21;;;;;;;10.07;7.33;;;;;;;20.11;42.29;103021.00;5052198;28;20021;-60
2022/03/21 08:20:46;;;;;;;10.30;6.18;;;;;;;20.25;41.91;103025.53;5055957;28;20761;-59
2022/03/21 08:23:14;;;;;;;10.32;6.68;;;;;;;20.38;41.87;103026.56;5055263;28;20071;-60
2022/03/21 08:25:41;;;;;;;10.23;6.90;;;;;;;20.54;41.58;103029.19;5055510;28;20060;-59
2022/03/21 08:28:08;;;;;;;8.82;6.22;;;;;;;20.68;41.00;103025.78;5055347;28;20024;-60
2022/03/21 08:30:35;;;;;;;10.40;6.57;;;;;;;20.79;40.62;103030.44;5055644;28;20032;-61
2022/03/21 08:33:03;;;;;;;9.27;6.28;;;;;;;20.88;40.70;103024.59;5055940;28;20123;-61
2022/03/21 08:35:30;;;;;;;8.45;5.97;;;;;;;20.94;40.41;103018.09;5055057;28;20025;-62
2022/03/21 08:37:56;;;;;;;11.00;6.05;;;;;;;21.02;40.44;103026.44;5055214;28;20036;-59
2022/03/21 08:40:21;;;;;;;9.07;5.70;;;;;;;21.09;40.56;103019.81;5055755;28;20029;-62
2022/03/21 08:42:47;;;;;;;10.20;5.80;;;;;;;21.14;40.42;103024.84;5054468;28;20091;-59
2022/03/21 08:45:13;;;;;;;8.55;5.38;;;;;;;21.16;40.61;103029.13;5055775;28;20032;-60
2022/03/21 08:47:39;;;;;;;10.10;6.20;;;;;;;21.19;40.53;103018.31;5055463;28;20108;-59
2022/03/21 08:50:06;;;;;;;10.57;6.13;;;;;;;21.19;39.91;103020.97;5054884;28;20017;-61
2022/03/21 08:52:31;;;;;;;10.65;5.63;;;;;;;21.18;40.16;103018.41;5055577;28;20021;-60
2022/03/21 08:54:57;;;;;;;10.38;6.15;;;;;;;21.16;40.22;103018.50;5055176;28;20022;-60
2022/03/21 08:57:22;;;;;;;10.15;5.65;;;;;;;21.16;40.18;103017.66;5054468;28;20036;-60
2022/03/21 08:59:47;;;;;;;9.98;5.45;;;;;;;21.13;40.50;103017.84;5055157;28;20024;-60
2022/03/21 09:02:13;;;;;;;9.27;6.03;;;;;;;21.09;40.27;103027.75;5055437;28;20083;-59
2022/03/21 09:04:40;;;;;;;12.32;5.90;;;;;;;21.06;38.91;103017.38;5054160;28;20021;-60
2022/03/21 09:07:08;;;;;;;11.48;6.38;;;;;;;21.00;39.45;103018.56;5055348;28;20021;-58
2022/03/21 09:09:33;;;;;;;7.97;5.25;;;;;;;20.92;40.23;103015.53;5055205;28;20035;-58
2022/03/21 09:11:59;;;;;;;10.02;5.90;;;;;;;20.88;40.19;103018.44;5054285;28;20052;-58
2022/03/21 09:14:24;;;;;;;7.63;4.70;;;;;;;20.86;40.51;103023.84;5055270;28;20025;-59
2022/03/21 09:16:50;;;;;;;11.40;5.13;;;;;;;20.83;40.54;103026.66;5054596;28;20158;-59
2022/03/21 09:19:16;;;;;;;10.35;5.60;;;;;;;20.84;40.56;103023.09;5054353;28;20017;-58
2022/03/21 09:21:41;;;;;;;7.75;5.18;;;;;;;20.83;40.49;103024.88;5054646;28;20017;-59
2022/03/21 09:24:07;;;;;;;9.27;5.07;;;;;;;20.81;40.54;103018.81;5054940;28;20024;-62
2022/03/21 09:26:32;;;;;;;14.48;7.53;;;;;;;20.83;39.39;103016.06;5054066;28;20032;-58
2022/03/21 09:29:02;;;;;;;10.60;6.65;;;;;;;20.78;39.39;103015.50;5054476;28;20409;-58
2022/03/21 09:31:28;;;;;;;9.35;6.05;;;;;;;20.73;39.20;103020.19;5053365;28;20538;-60
2022/03/21 09:33:54;;;;;;;11.15;6.15;;;;;;;20.72;39.94;103015.84;5054536;28;20052;-65
2022/03/21 09:36:19;;;;;;;8.52;4.90;;;;;;;20.69;40.56;103010.72;5054695;28;20495;-61
2022/03/21 09:38:44;;;;;;;9.35;5.10;;;;;;;20.72;40.16;103013.19;5053634;28;20381;-61
2022/03/21 09:41:14;;;;;;;10.00;5.18;;;;;;;20.72;40.33;103006.09;5054616;28;20051;-62
2022/03/21 09:43:40;;;;;;;7.22;4.80;;;;;;;20.71;40.50;103000.88;5054248;28;20487;-62
2022/03/21 09:46:08;;;;;;;9.50;4.85;;;;;;;20.69;40.66;102995.66;5053882;28;20029;-62
2022/03/21 09:48:34;;;;;;;9.10;4.72;;;;;;;20.71;40.60;103001.75;5054364;28;20029;-62
2022/03/21 09:51:03;;;;;;;7.80;4.70;;;;;;;20.73;40.38;103002.50;5054573;28;20021;-62
2022/03/21 09:53:29;;;;;;;7.80;4.72;;;;;;;20.75;40.53;103005.06;5053619;28;20045;-61
2022/03/21 09:55:55;;;;;;;8.68;4.80;;;;;;;20.74;40.65;102998.06;5054237;28;20499;-62
2022/03/21 09:58:21;;;;;;;10.27;4.93;;;;;;;20.72;40.84;103003.44;5054456;28;20029;-63
2022/03/21 10:00:48;;;;;;;8.63;4.82;;;;;;;20.71;40.86;102991.16;5053383;28;20108;-62
2022/03/21 10:03:14;;;;;;;8.70;4.78;;;;;;;20.71;40.58;102990.28;5054370;28;20044;-61
2022/03/21 10:05:49;;;;;;;9.40;4.90;;;;;;;20.70;40.46;103001.84;5053842;28;20064;-61
2022/03/21 10:08:17;;;;;;;10.95;5.00;;;;;;;20.72;40.94;102998.13;5053540;28;20048;-62
2022/03/21 10:11:01;;;;;;;7.95;5.00;;;;;;;20.81;41.33;102984.34;5053876;28;20027;-63
2022/03/21 10:13:29;;;;;;;9.10;4.38;;;;;;;20.94;41.07;102997.72;5053675;28;20052;-62
2022/03/21 10:16:12;;;;;;;8.95;4.20;;;;;;;21.05;41.22;102980.34;5053493;28;20388;-61
2022/03/21 10:18:39;;;;;;;7.97;4.70;;;;;;;21.12;40.81;102976.38;5053395;28;20480;-60
2022/03/21 10:21:13;;;;;;;7.72;4.40;;;;;;;21.19;40.81;102977.72;5053219;28;20036;-60
2022/03/21 10:23:38;;;;;;;7.35;4.15;;;;;;;21.24;40.68;102977.41;5053673;28;20017;-61
2022/03/21 10:26:30;;;;;;;9.07;4.30;;;;;;;21.27;40.80;102980.75;5053730;28;20032;-61
2022/03/21 10:28:58;;;;;;;8.07;4.22;;;;;;;21.29;41.03;102980.66;5052556;28;20025;-61
2022/03/21 10:31:35;;;;;;;8.82;4.30;;;;;;;21.31;41.10;102976.94;5053736;28;20048;-60
2022/03/21 10:34:05;;;;;;;9.68;4.07;;;;;;;21.34;41.14;102978.56;5053431;28;20021;-63
2022/03/21 10:36:31;;;;;;;8.55;4.22;;;;;;;21.36;40.95;102979.31;5052801;28;20028;-61
2022/03/21 10:39:11;;;;;;;7.93;4.25;;;;;;;21.37;40.96;102987.16;5053304;28;20021;-61
2022/03/21 10:41:39;;;;;;;10.00;4.35;;;;;;;21.37;40.84;102981.88;5052199;28;20547;-66
2022/03/21 10:44:08;;;;;;;9.25;4.18;;;;;;;21.36;41.08;102980.19;5052556;28;20105;-63
2022/03/21 10:46:34;;;;;;;7.80;4.40;;;;;;;21.34;41.00;102981.22;5053166;28;20028;-60
2022/03/21 10:49:06;;;;;;;7.10;4.53;;;;;;;21.35;41.06;102980.28;5052591;28;20056;-62
2022/03/21 10:51:54;;;;;;;8.52;4.30;;;;;;;21.38;41.14;102980.94;5053180;28;20027;-63
2022/03/21 10:54:39;;;;;;;9.07;4.32;;;;;;;21.41;41.10;102973.72;5053314;28;20108;-61
2022/03/21 10:57:06;;;;;;;6.68;4.07;;;;;;;21.42;40.98;102970.97;5052303;28;20119;-60
2022/03/21 10:59:33;;;;;;;6.70;4.18;;;;;;;21.44;40.58;102961.13;5053112;28;20044;-61
2022/03/21 11:02:13;;;;;;;7.85;4.22;;;;;;;21.45;40.48;102965.47;5052772;28;20029;-62
2022/03/21 11:04:42;;;;;;;9.68;4.63;;;;;;;21.45;40.92;102964.63;5051821;28;20021;-61
2022/03/21 11:07:11;;;;;;;7.10;4.70;;;;;;;21.45;41.25;102961.97;5053020;28;20025;-61
2022/03/21 11:09:37;;;;;;;9.70;4.50;;;;;;;21.43;41.30;102955.91;5052577;28;20021;-67
2022/03/21 11:12:05;;;;;;;8.68;4.25;;;;;;;21.40;41.39;102954.31;5051772;28;20128;-65
2022/03/21 11:14:31;;;;;;;7.30;4.13;;;;;;;21.40;41.69;102956.13;5052992;28;20040;-61
2022/03/21 11:16:58;;;;;;;8.95;4.40;;;;;;;21.28;41.26;102945.28;5051624;28;20053;-59
2022/03/21 11:19:24;;;;;;;8.98;4.50;;;;;;;21.34;40.89;102958.19;5052790;28;20025;-59
2022/03/21 11:21:50;;;;;;;8.93;4.65;;;;;;;21.29;41.08;102960.28;5052350;28;20078;-59
2022/03/21 11:24:15;;;;;;;6.57;4.13;;;;;;;21.26;41.46;102955.16;5051880;28;20025;-59
2022/03/21 11:26:52;;;;;;;8.65;4.40;;;;;;;21.21;41.88;102954.59;5052271;28;20060;-60
2022/03/21 11:29:36;;;;;;;9.82;4.78;;;;;;;21.15;41.55;102945.19;5052628;28;20111;-60
2022/03/21 11:32:24;;;;;;;7.13;4.10;;;;;;;21.10;41.34;102942.00;5051921;28;20480;-60